sensor_id;sensor_type;location;lat;lon;timestamp;pressure;altitude;pressure_sealevel;temperature;humidity
72336;BME280;65062;48.446;8.834;2022-11-25T00:01:54;97493.81;;;0.83;92.70
72336;BME280;65062;48.446;8.834;2022-11-25T00:04:54;97508.59;;;0.81;92.37
72336;BME280;65062;48.446;8.834;2022-11-25T00:07:55;97506.00;;;0.81;92.62
72336;BME280;65062;48.446;8.834;2022-11-25T00:10:59;97496.97;;;0.86;92.47
72336;BME280;65062;48.446;8.834;2022-11-25T00:14:00;97499.34;;;0.78;92.60
72336;BME280;65062;48.446;8.834;2022-11-25T00:17:00;97506.94;;;0.80;92.19
72336;BME280;65062;48.446;8.834;2022-11-25T00:20:00;97507.06;;;0.78;92.42
72336;BME280;65062;48.446;8.834;2022-11-25T00:23:03;97510.22;;;0.82;92.51
72336;BME280;65062;48.446;8.834;2022-11-25T00:26:11;97507.25;;;0.86;92.88
72336;BME280;65062;48.446;8.834;2022-11-25T00:29:11;97506.00;;;0.81;92.69
72336;BME280;65062;48.446;8.834;2022-11-25T00:32:13;97501.25;;;0.76;91.89
72336;BME280;65062;48.446;8.834;2022-11-25T00:35:13;97497.13;;;0.74;92.07
72336;BME280;65062;48.446;8.834;2022-11-25T00:38:14;97483.00;;;0.68;91.94
72336;BME280;65062;48.446;8.834;2022-11-25T00:41:14;97483.94;;;0.67;92.48
72336;BME280;65062;48.446;8.834;2022-11-25T00:44:33;97484.00;;;0.77;92.93
72336;BME280;65062;48.446;8.834;2022-11-25T00:47:36;97479.94;;;0.74;92.84
72336;BME280;65062;48.446;8.834;2022-11-25T00:50:37;97471.56;;;0.82;92.46
72336;BME280;65062;48.446;8.834;2022-11-25T00:53:37;97481.31;;;0.78;91.36
72336;BME280;65062;48.446;8.834;2022-11-25T00:56:37;97478.09;;;0.65;91.32
72336;BME280;65062;48.446;8.834;2022-11-25T00:59:38;97472.94;;;0.65;91.16
72336;BME280;65062;48.446;8.834;2022-11-25T01:02:38;97482.56;;;0.63;91.71
72336;BME280;65062;48.446;8.834;2022-11-25T01:05:39;97480.75;;;0.54;92.12
72336;BME280;65062;48.446;8.834;2022-11-25T01:08:39;97468.03;;;0.62;91.84
72336;BME280;65062;48.446;8.834;2022-11-25T01:11:40;97481.03;;;0.61;92.06
72336;BME280;65062;48.446;8.834;2022-11-25T01:14:40;97469.56;;;0.44;92.51
72336;BME280;65062;48.446;8.834;2022-11-25T01:17:40;97474.19;;;0.50;92.84
72336;BME280;65062;48.446;8.834;2022-11-25T01:20:41;97472.69;;;0.48;92.18
72336;BME280;65062;48.446;8.834;2022-11-25T01:23:42;97475.75;;;0.42;92.62
72336;BME280;65062;48.446;8.834;2022-11-25T01:26:43;97474.19;;;0.50;92.71
72336;BME280;65062;48.446;8.834;2022-11-25T01:29:44;97471.25;;;0.55;92.77
72336;BME280;65062;48.446;8.834;2022-11-25T01:32:44;97472.19;;;0.54;93.05
72336;BME280;65062;48.446;8.834;2022-11-25T01:35:44;97472.31;;;0.52;93.49
72336;BME280;65062;48.446;8.834;2022-11-25T01:38:49;97468.91;;;0.52;93.78
72336;BME280;65062;48.446;8.834;2022-11-25T01:41:50;97465.72;;;0.59;93.84
72336;BME280;65062;48.446;8.834;2022-11-25T01:48:28;97481.38;;;0.67;93.56
72336;BME280;65062;48.446;8.834;2022-11-25T01:51:46;97482.31;;;0.66;92.06
72336;BME280;65062;48.446;8.834;2022-11-25T01:54:58;97483.47;;;0.73;92.61
72336;BME280;65062;48.446;8.834;2022-11-25T01:58:13;97475.03;;;0.71;92.88
72336;BME280;65062;48.446;8.834;2022-11-25T02:01:15;97475.16;;;0.70;92.91
72336;BME280;65062;48.446;8.834;2022-11-25T02:04:18;97468.19;;;0.81;93.15
72336;BME280;65062;48.446;8.834;2022-11-25T02:07:38;97454.50;;;0.81;93.00
72336;BME280;65062;48.446;8.834;2022-11-25T02:10:38;97456.94;;;0.82;93.02
72336;BME280;65062;48.446;8.834;2022-11-25T02:13:39;97447.81;;;0.78;92.64
72336;BME280;65062;48.446;8.834;2022-11-25T02:16:40;97452.44;;;0.75;92.77
72336;BME280;65062;48.446;8.834;2022-11-25T02:20:07;97449.28;;;0.71;92.66
72336;BME280;65062;48.446;8.834;2022-11-25T02:23:25;97439.56;;;0.75;93.32
72336;BME280;65062;48.446;8.834;2022-11-25T02:26:28;97435.69;;;0.69;93.25
72336;BME280;65062;48.446;8.834;2022-11-25T02:29:28;97446.19;;;0.77;92.73
72336;BME280;65062;48.446;8.834;2022-11-25T02:32:29;97450.41;;;0.78;92.76
72336;BME280;65062;48.446;8.834;2022-11-25T02:35:35;97454.53;;;0.90;93.05
72336;BME280;65062;48.446;8.834;2022-11-25T02:38:56;97452.22;;;0.87;92.39
72336;BME280;65062;48.446;8.834;2022-11-25T02:41:58;97441.25;;;0.85;92.68
72336;BME280;65062;48.446;8.834;2022-11-25T02:44:59;97447.91;;;0.88;92.70
72336;BME280;65062;48.446;8.834;2022-11-25T02:47:59;97462.16;;;0.92;91.86
72336;BME280;65062;48.446;8.834;2022-11-25T02:51:00;97459.66;;;0.81;92.16
72336;BME280;65062;48.446;8.834;2022-11-25T02:54:00;97451.84;;;0.71;92.53
72336;BME280;65062;48.446;8.834;2022-11-25T02:57:01;97446.19;;;0.77;92.84
72336;BME280;65062;48.446;8.834;2022-11-25T03:00:02;97458.38;;;0.75;92.62
72336;BME280;65062;48.446;8.834;2022-11-25T03:03:03;97462.41;;;0.68;93.27
72336;BME280;65062;48.446;8.834;2022-11-25T03:06:04;97465.69;;;0.70;92.63
72336;BME280;65062;48.446;8.834;2022-11-25T03:09:04;97453.59;;;0.71;92.82
72336;BME280;65062;48.446;8.834;2022-11-25T03:12:04;97441.03;;;0.77;92.95
72336;BME280;65062;48.446;8.834;2022-11-25T03:15:21;97437.72;;;0.66;92.63
72336;BME280;65062;48.446;8.834;2022-11-25T03:18:21;97447.31;;;0.64;92.93
72336;BME280;65062;48.446;8.834;2022-11-25T03:21:22;97444.69;;;0.54;92.91
72336;BME280;65062;48.446;8.834;2022-11-25T03:24:22;97450.84;;;0.63;92.63
72336;BME280;65062;48.446;8.834;2022-11-25T03:27:23;97421.28;;;0.57;92.92
72336;BME280;65062;48.446;8.834;2022-11-25T03:30:25;97428.25;;;0.66;92.54
72336;BME280;65062;48.446;8.834;2022-11-25T03:33:25;97419.19;;;0.51;92.27
72336;BME280;65062;48.446;8.834;2022-11-25T03:36:26;97416.50;;;0.53;92.84
72336;BME280;65062;48.446;8.834;2022-11-25T03:39:26;97417.63;;;0.60;93.11
72336;BME280;65062;48.446;8.834;2022-11-25T03:42:27;97433.13;;;0.49;92.97
72336;BME280;65062;48.446;8.834;2022-11-25T03:45:27;97434.06;;;0.48;93.05
72336;BME280;65062;48.446;8.834;2022-11-25T03:48:27;97437.91;;;0.53;93.19
72336;BME280;65062;48.446;8.834;2022-11-25T03:51:28;97442.78;;;0.56;93.23
72336;BME280;65062;48.446;8.834;2022-11-25T03:54:28;97437.16;;;0.62;93.61
72336;BME280;65062;48.446;8.834;2022-11-25T03:57:29;97434.94;;;0.58;93.49
72336;BME280;65062;48.446;8.834;2022-11-25T04:00:29;97435.53;;;0.61;93.42
72336;BME280;65062;48.446;8.834;2022-11-25T04:03:30;97430.81;;;0.66;93.97
72336;BME280;65062;48.446;8.834;2022-11-25T04:06:30;97425.47;;;0.58;93.43
72336;BME280;65062;48.446;8.834;2022-11-25T04:09:31;97429.41;;;0.62;93.70
72336;BME280;65062;48.446;8.834;2022-11-25T04:12:31;97427.69;;;0.63;93.02
72336;BME280;65062;48.446;8.834;2022-11-25T04:15:49;97426.44;;;0.57;92.86
72336;BME280;65062;48.446;8.834;2022-11-25T04:18:49;97425.41;;;0.69;93.26
72336;BME280;65062;48.446;8.834;2022-11-25T04:21:49;97435.19;;;0.75;92.57
72336;BME280;65062;48.446;8.834;2022-11-25T04:24:50;97437.97;;;0.63;92.42
72336;BME280;65062;48.446;8.834;2022-11-25T04:27:50;97443.75;;;0.55;91.97
72336;BME280;65062;48.446;8.834;2022-11-25T04:30:51;97444.06;;;0.62;92.79
72336;BME280;65062;48.446;8.834;2022-11-25T04:33:51;97438.16;;;0.50;92.80
72336;BME280;65062;48.446;8.834;2022-11-25T04:36:51;97457.56;;;0.54;93.04
72336;BME280;65062;48.446;8.834;2022-11-25T04:39:52;97445.50;;;0.55;93.79
72336;BME280;65062;48.446;8.834;2022-11-25T04:42:52;97446.94;;;0.48;93.43
72336;BME280;65062;48.446;8.834;2022-11-25T04:45:52;97457.72;;;0.42;93.77
72336;BME280;65062;48.446;8.834;2022-11-25T04:48:53;97459.28;;;0.33;93.46
72336;BME280;65062;48.446;8.834;2022-11-25T04:51:53;97456.00;;;0.31;93.68
72336;BME280;65062;48.446;8.834;2022-11-25T04:54:54;97457.09;;;0.29;93.62
72336;BME280;65062;48.446;8.834;2022-11-25T04:57:54;97455.09;;;0.32;93.99
72336;BME280;65062;48.446;8.834;2022-11-25T05:00:55;97446.91;;;0.27;94.07
72336;BME280;65062;48.446;8.834;2022-11-25T05:03:55;97439.19;;;0.27;93.89
72336;BME280;65062;48.446;8.834;2022-11-25T05:06:56;97432.19;;;0.29;93.61
72336;BME280;65062;48.446;8.834;2022-11-25T05:09:56;97430.41;;;0.30;93.71
72336;BME280;65062;48.446;8.834;2022-11-25T05:12:57;97430.28;;;0.31;94.02
72336;BME280;65062;48.446;8.834;2022-11-25T05:15:58;97425.75;;;0.24;93.74
72336;BME280;65062;48.446;8.834;2022-11-25T05:18:59;97432.78;;;0.22;93.43
72336;BME280;65062;48.446;8.834;2022-11-25T05:22:00;97444.94;;;0.20;92.90
72336;BME280;65062;48.446;8.834;2022-11-25T05:25:01;97448.38;;;0.09;93.01
72336;BME280;65062;48.446;8.834;2022-11-25T05:28:01;97450.94;;;0.09;92.97
72336;BME280;65062;48.446;8.834;2022-11-25T05:31:02;97446.69;;;-0.02;93.37
72336;BME280;65062;48.446;8.834;2022-11-25T05:34:02;97445.81;;;0.09;93.61
72336;BME280;65062;48.446;8.834;2022-11-25T05:37:03;97441.81;;;0.16;93.80
72336;BME280;65062;48.446;8.834;2022-11-25T05:40:04;97441.81;;;0.16;93.63
72336;BME280;65062;48.446;8.834;2022-11-25T05:43:05;97449.72;;;0.24;93.98
72336;BME280;65062;48.446;8.834;2022-11-25T05:46:06;97458.41;;;0.23;93.67
72336;BME280;65062;48.446;8.834;2022-11-25T05:49:06;97453.50;;;0.20;94.09
72336;BME280;65062;48.446;8.834;2022-11-25T05:52:07;97460.16;;;0.23;93.99
72336;BME280;65062;48.446;8.834;2022-11-25T05:55:07;97464.22;;;0.25;94.00
72336;BME280;65062;48.446;8.834;2022-11-25T05:58:08;97476.72;;;0.30;93.85
72336;BME280;65062;48.446;8.834;2022-11-25T06:01:11;97480.38;;;0.27;93.93
72336;BME280;65062;48.446;8.834;2022-11-25T06:04:12;97488.91;;;0.28;93.95
72336;BME280;65062;48.446;8.834;2022-11-25T06:07:14;97495.94;;;0.26;93.70
72336;BME280;65062;48.446;8.834;2022-11-25T06:10:18;97500.59;;;0.32;93.42
72336;BME280;65062;48.446;8.834;2022-11-25T06:13:20;97497.66;;;0.36;93.49
72336;BME280;65062;48.446;8.834;2022-11-25T06:16:21;97496.63;;;0.28;93.77
72336;BME280;65062;48.446;8.834;2022-11-25T06:19:22;97497.19;;;0.31;93.69
72336;BME280;65062;48.446;8.834;2022-11-25T06:22:22;97496.94;;;0.34;93.36
72336;BME280;65062;48.446;8.834;2022-11-25T06:25:23;97496.16;;;0.34;93.72
72336;BME280;65062;48.446;8.834;2022-11-25T06:28:23;97499.16;;;0.39;93.21
72336;BME280;65062;48.446;8.834;2022-11-25T06:31:24;97508.31;;;0.32;93.15
72336;BME280;65062;48.446;8.834;2022-11-25T06:34:25;97504.25;;;0.29;93.16
72336;BME280;65062;48.446;8.834;2022-11-25T06:37:25;97502.94;;;0.24;92.87
72336;BME280;65062;48.446;8.834;2022-11-25T06:40:26;97504.34;;;0.28;93.39
72336;BME280;65062;48.446;8.834;2022-11-25T06:43:26;97498.13;;;0.30;93.47
72336;BME280;65062;48.446;8.834;2022-11-25T06:46:27;97510.19;;;0.30;92.89
72336;BME280;65062;48.446;8.834;2022-11-25T06:49:27;97517.09;;;0.29;93.28
72336;BME280;65062;48.446;8.834;2022-11-25T06:52:31;97511.47;;;0.35;93.67
72336;BME280;65062;48.446;8.834;2022-11-25T06:55:32;97514.47;;;0.51;93.50
72336;BME280;65062;48.446;8.834;2022-11-25T06:58:33;97516.25;;;0.40;92.69
72336;BME280;65062;48.446;8.834;2022-11-25T07:01:34;97526.09;;;0.35;92.32
72336;BME280;65062;48.446;8.834;2022-11-25T07:04:34;97533.09;;;0.33;92.40
72336;BME280;65062;48.446;8.834;2022-11-25T07:07:35;97536.88;;;0.29;92.06
72336;BME280;65062;48.446;8.834;2022-11-25T07:10:35;97531.47;;;0.32;92.82
72336;BME280;65062;48.446;8.834;2022-11-25T07:13:35;97540.94;;;0.31;92.88
72336;BME280;65062;48.446;8.834;2022-11-25T07:16:38;97533.69;;;0.36;93.20
72336;BME280;65062;48.446;8.834;2022-11-25T07:19:38;97538.66;;;0.49;93.35
72336;BME280;65062;48.446;8.834;2022-11-25T07:22:39;97550.44;;;0.62;93.67
72336;BME280;65062;48.446;8.834;2022-11-25T07:25:39;97545.88;;;0.66;93.52
72336;BME280;65062;48.446;8.834;2022-11-25T07:28:41;97555.09;;;0.68;93.10
72336;BME280;65062;48.446;8.834;2022-11-25T07:31:43;97558.16;;;0.73;92.73
72336;BME280;65062;48.446;8.834;2022-11-25T07:34:44;97563.34;;;0.83;92.52
72336;BME280;65062;48.446;8.834;2022-11-25T07:37:44;97555.50;;;0.84;93.01
72336;BME280;65062;48.446;8.834;2022-11-25T07:40:44;97560.63;;;0.95;92.68
72336;BME280;65062;48.446;8.834;2022-11-25T07:43:47;97562.09;;;1.09;92.31
72336;BME280;65062;48.446;8.834;2022-11-25T07:46:49;97570.84;;;1.06;91.23
72336;BME280;65062;48.446;8.834;2022-11-25T07:49:49;97579.16;;;1.10;91.40
72336;BME280;65062;48.446;8.834;2022-11-25T07:52:50;97581.00;;;1.19;91.35
72336;BME280;65062;48.446;8.834;2022-11-25T07:55:50;97584.06;;;1.33;91.79
72336;BME280;65062;48.446;8.834;2022-11-25T07:58:51;97573.94;;;1.41;91.08
72336;BME280;65062;48.446;8.834;2022-11-25T08:01:53;97585.94;;;1.52;90.83
72336;BME280;65062;48.446;8.834;2022-11-25T08:04:54;97585.06;;;1.62;90.89
72336;BME280;65062;48.446;8.834;2022-11-25T08:07:54;97583.59;;;1.69;89.85
72336;BME280;65062;48.446;8.834;2022-11-25T08:10:55;97586.34;;;1.77;89.97
72336;BME280;65062;48.446;8.834;2022-11-25T08:13:56;97589.72;;;1.98;89.53
72336;BME280;65062;48.446;8.834;2022-11-25T08:16:57;97591.41;;;1.88;88.80
72336;BME280;65062;48.446;8.834;2022-11-25T08:19:57;97588.38;;;2.04;88.20
72336;BME280;65062;48.446;8.834;2022-11-25T08:22:57;97590.56;;;2.08;88.33
72336;BME280;65062;48.446;8.834;2022-11-25T08:26:24;97585.78;;;2.04;88.17
72336;BME280;65062;48.446;8.834;2022-11-25T08:29:25;97589.22;;;2.14;88.52
72336;BME280;65062;48.446;8.834;2022-11-25T08:32:25;97578.75;;;2.15;88.48
72336;BME280;65062;48.446;8.834;2022-11-25T08:35:26;97582.28;;;2.14;88.40
72336;BME280;65062;48.446;8.834;2022-11-25T08:38:27;97588.03;;;2.28;87.96
72336;BME280;65062;48.446;8.834;2022-11-25T08:41:33;97585.59;;;2.36;88.38
72336;BME280;65062;48.446;8.834;2022-11-25T08:44:34;97591.75;;;2.44;88.40
72336;BME280;65062;48.446;8.834;2022-11-25T08:47:35;97593.28;;;2.66;87.57
72336;BME280;65062;48.446;8.834;2022-11-25T08:50:35;97596.03;;;2.83;87.25
72336;BME280;65062;48.446;8.834;2022-11-25T08:53:37;97599.97;;;2.87;86.21
72336;BME280;65062;48.446;8.834;2022-11-25T08:56:38;97604.72;;;3.11;86.36
72336;BME280;65062;48.446;8.834;2022-11-25T08:59:38;97600.91;;;3.15;85.55
72336;BME280;65062;48.446;8.834;2022-11-25T09:02:39;97598.63;;;3.12;85.87
72336;BME280;65062;48.446;8.834;2022-11-25T09:05:41;97608.41;;;3.27;85.07
72336;BME280;65062;48.446;8.834;2022-11-25T09:08:43;97608.50;;;3.45;84.42
72336;BME280;65062;48.446;8.834;2022-11-25T09:11:44;97595.63;;;3.81;84.03
72336;BME280;65062;48.446;8.834;2022-11-25T09:14:44;97594.06;;;3.98;84.12
72336;BME280;65062;48.446;8.834;2022-11-25T09:17:44;97588.09;;;4.24;83.69
72336;BME280;65062;48.446;8.834;2022-11-25T09:20:45;97595.59;;;4.27;83.03
72336;BME280;65062;48.446;8.834;2022-11-25T09:23:49;97600.06;;;4.35;82.83
72336;BME280;65062;48.446;8.834;2022-11-25T09:26:50;97600.38;;;4.50;82.03
72336;BME280;65062;48.446;8.834;2022-11-25T09:29:50;97602.22;;;4.40;82.43
72336;BME280;65062;48.446;8.834;2022-11-25T09:32:53;97603.25;;;4.47;83.29
72336;BME280;65062;48.446;8.834;2022-11-25T09:35:53;97601.38;;;4.66;82.65
72336;BME280;65062;48.446;8.834;2022-11-25T09:38:55;97609.47;;;4.81;81.74
72336;BME280;65062;48.446;8.834;2022-11-25T09:55:44;97606.28;;;4.87;83.85
72336;BME280;65062;48.446;8.834;2022-11-25T09:58:55;97614.38;;;5.01;83.34
72336;BME280;65062;48.446;8.834;2022-11-25T10:02:00;97605.47;;;5.21;83.21
72336;BME280;65062;48.446;8.834;2022-11-25T10:08:29;97594.59;;;5.43;81.92
72336;BME280;65062;48.446;8.834;2022-11-25T10:11:49;97591.63;;;5.56;81.44
72336;BME280;65062;48.446;8.834;2022-11-25T10:15:15;97591.50;;;5.57;82.33
72336;BME280;65062;48.446;8.834;2022-11-25T10:18:37;97602.41;;;5.86;81.53
72336;BME280;65062;48.446;8.834;2022-11-25T10:21:38;97599.22;;;6.34;79.86
72336;BME280;65062;48.446;8.834;2022-11-25T10:24:39;97604.94;;;6.95;79.55
72336;BME280;65062;48.446;8.834;2022-11-25T10:27:51;97614.91;;;7.48;78.58
72336;BME280;65062;48.446;8.834;2022-11-25T10:31:17;97617.50;;;7.40;77.40
72336;BME280;65062;48.446;8.834;2022-11-25T10:34:36;97620.91;;;7.24;78.10
72336;BME280;65062;48.446;8.834;2022-11-25T10:37:43;97620.72;;;7.18;79.35
72336;BME280;65062;48.446;8.834;2022-11-25T10:40:47;97620.56;;;6.95;78.92
72336;BME280;65062;48.446;8.834;2022-11-25T10:43:49;97627.53;;;6.95;78.95
72336;BME280;65062;48.446;8.834;2022-11-25T10:50:19;97631.75;;;6.38;81.15
72336;BME280;65062;48.446;8.834;2022-11-25T10:53:23;97635.75;;;6.24;82.53
72336;BME280;65062;48.446;8.834;2022-11-25T10:56:24;97631.84;;;6.20;82.73
72336;BME280;65062;48.446;8.834;2022-11-25T10:59:32;97621.81;;;6.33;82.27
72336;BME280;65062;48.446;8.834;2022-11-25T11:02:39;97623.19;;;6.54;82.89
72336;BME280;65062;48.446;8.834;2022-11-25T11:05:49;97622.97;;;6.81;82.27
72336;BME280;65062;48.446;8.834;2022-11-25T11:08:49;97630.97;;;7.19;81.50
72336;BME280;65062;48.446;8.834;2022-11-25T11:11:50;97629.22;;;7.28;81.08
72336;BME280;65062;48.446;8.834;2022-11-25T11:14:52;97637.84;;;7.36;81.22
72336;BME280;65062;48.446;8.834;2022-11-25T11:17:54;97640.78;;;7.33;81.84
72336;BME280;65062;48.446;8.834;2022-11-25T11:20:57;97634.25;;;7.37;80.71
72336;BME280;65062;48.446;8.834;2022-11-25T11:23:58;97638.00;;;7.35;80.73
72336;BME280;65062;48.446;8.834;2022-11-25T11:47:07;97652.81;;;7.98;80.95
72336;BME280;65062;48.446;8.834;2022-11-25T11:54:05;97654.91;;;8.11;80.34
72336;BME280;65062;48.446;8.834;2022-11-25T12:00:42;97660.78;;;8.05;81.65
72336;BME280;65062;48.446;8.834;2022-11-25T12:03:56;97662.56;;;8.12;82.90
72336;BME280;65062;48.446;8.834;2022-11-25T12:07:06;97656.19;;;8.31;82.30
72336;BME280;65062;48.446;8.834;2022-11-25T12:13:26;97659.50;;;8.64;82.15
72336;BME280;65062;48.446;8.834;2022-11-25T12:20:15;97666.13;;;8.82;80.45
72336;BME280;65062;48.446;8.834;2022-11-25T12:26:32;97662.03;;;8.80;81.40
72336;BME280;65062;48.446;8.834;2022-11-25T12:36:01;97673.63;;;9.16;79.41
72336;BME280;65062;48.446;8.834;2022-11-25T12:39:26;97670.91;;;9.32;78.60
72336;BME280;65062;48.446;8.834;2022-11-25T12:42:24;97678.31;;;9.20;78.57
72336;BME280;65062;48.446;8.834;2022-11-25T12:45:25;97676.16;;;9.24;77.99
72336;BME280;65062;48.446;8.834;2022-11-25T12:48:25;97680.28;;;9.18;78.84
72336;BME280;65062;48.446;8.834;2022-11-25T12:58:43;97684.63;;;9.34;78.48
72336;BME280;65062;48.446;8.834;2022-11-25T13:02:18;97691.22;;;9.44;77.71
72336;BME280;65062;48.446;8.834;2022-11-25T13:08:55;97702.44;;;9.75;77.46
72336;BME280;65062;48.446;8.834;2022-11-25T13:15:25;97712.31;;;9.65;77.80
72336;BME280;65062;48.446;8.834;2022-11-25T13:18:29;97717.53;;;9.65;77.88
72336;BME280;65062;48.446;8.834;2022-11-25T13:21:32;97720.03;;;9.81;77.23
72336;BME280;65062;48.446;8.834;2022-11-25T13:24:40;97726.66;;;10.14;75.55
72336;BME280;65062;48.446;8.834;2022-11-25T13:30:41;97725.38;;;10.91;73.50
72336;BME280;65062;48.446;8.834;2022-11-25T13:36:44;97720.81;;;11.29;72.36
72336;BME280;65062;48.446;8.834;2022-11-25T13:39:45;97726.47;;;11.47;70.29
72336;BME280;65062;48.446;8.834;2022-11-25T13:42:45;97731.22;;;12.42;68.86
72336;BME280;65062;48.446;8.834;2022-11-25T13:45:46;97736.69;;;15.19;56.74
72336;BME280;65062;48.446;8.834;2022-11-25T13:48:46;97740.34;;;16.80;51.02
72336;BME280;65062;48.446;8.834;2022-11-25T13:51:58;97742.59;;;17.84;46.43
72336;BME280;65062;48.446;8.834;2022-11-25T13:55:19;97745.69;;;17.81;48.81
72336;BME280;65062;48.446;8.834;2022-11-25T13:58:24;97759.16;;;16.90;50.08
72336;BME280;65062;48.446;8.834;2022-11-25T14:01:24;97765.03;;;16.92;49.27
72336;BME280;65062;48.446;8.834;2022-11-25T14:04:42;97767.59;;;15.93;51.81
72336;BME280;65062;48.446;8.834;2022-11-25T14:11:29;97782.41;;;14.54;53.46
72336;BME280;65062;48.446;8.834;2022-11-25T14:18:38;97784.00;;;14.35;53.94
72336;BME280;65062;48.446;8.834;2022-11-25T14:25:19;97804.44;;;13.54;57.05
72336;BME280;65062;48.446;8.834;2022-11-25T14:28:26;97820.72;;;12.47;58.98
72336;BME280;65062;48.446;8.834;2022-11-25T14:31:36;97824.69;;;11.65;62.97
72336;BME280;65062;48.446;8.834;2022-11-25T14:34:52;97817.94;;;10.98;65.26
72336;BME280;65062;48.446;8.834;2022-11-25T14:41:11;97832.69;;;10.25;65.44
72336;BME280;65062;48.446;8.834;2022-11-25T14:44:17;97831.69;;;9.95;66.91
72336;BME280;65062;48.446;8.834;2022-11-25T14:47:27;97838.34;;;9.75;67.96
72336;BME280;65062;48.446;8.834;2022-11-25T14:50:27;97842.97;;;9.65;69.39
72336;BME280;65062;48.446;8.834;2022-11-25T14:53:28;97850.13;;;9.71;69.23
72336;BME280;65062;48.446;8.834;2022-11-25T14:56:32;97857.31;;;9.69;69.03
72336;BME280;65062;48.446;8.834;2022-11-25T14:59:33;97856.59;;;9.45;69.92
72336;BME280;65062;48.446;8.834;2022-11-25T15:02:38;97861.06;;;9.28;70.64
72336;BME280;65062;48.446;8.834;2022-11-25T15:05:39;97869.63;;;9.14;72.47
72336;BME280;65062;48.446;8.834;2022-11-25T15:08:42;97876.00;;;8.96;73.27
72336;BME280;65062;48.446;8.834;2022-11-25T15:11:43;97877.31;;;9.00;71.79
72336;BME280;65062;48.446;8.834;2022-11-25T15:14:52;97872.31;;;8.66;73.32
72336;BME280;65062;48.446;8.834;2022-11-25T15:17:53;97878.97;;;8.44;75.49
72336;BME280;65062;48.446;8.834;2022-11-25T15:20:58;97881.69;;;8.03;76.73
72336;BME280;65062;48.446;8.834;2022-11-25T15:23:59;97900.63;;;7.71;77.80
72336;BME280;65062;48.446;8.834;2022-11-25T15:27:01;97895.03;;;7.58;78.67
72336;BME280;65062;48.446;8.834;2022-11-25T15:30:26;97908.16;;;7.41;78.20
72336;BME280;65062;48.446;8.834;2022-11-25T15:33:28;97906.16;;;7.35;79.87
72336;BME280;65062;48.446;8.834;2022-11-25T15:36:29;97913.38;;;7.41;80.73
72336;BME280;65062;48.446;8.834;2022-11-25T15:39:30;97919.72;;;7.13;80.71
72336;BME280;65062;48.446;8.834;2022-11-25T15:42:30;97915.94;;;7.07;82.00
72336;BME280;65062;48.446;8.834;2022-11-25T15:45:42;97920.94;;;7.01;81.81
72336;BME280;65062;48.446;8.834;2022-11-25T15:48:45;97926.97;;;7.01;82.34
72336;BME280;65062;48.446;8.834;2022-11-25T15:54:52;97930.09;;;6.87;81.59
72336;BME280;65062;48.446;8.834;2022-11-25T15:58:18;97927.38;;;6.71;82.75
72336;BME280;65062;48.446;8.834;2022-11-25T16:04:20;97945.81;;;6.60;83.38
72336;BME280;65062;48.446;8.834;2022-11-25T16:07:23;97947.31;;;6.45;84.19
72336;BME280;65062;48.446;8.834;2022-11-25T16:13:29;97947.00;;;6.30;84.60
72336;BME280;65062;48.446;8.834;2022-11-25T16:16:30;97948.94;;;6.28;84.80
72336;BME280;65062;48.446;8.834;2022-11-25T16:19:36;97958.44;;;6.20;84.89
72336;BME280;65062;48.446;8.834;2022-11-25T16:22:37;97966.28;;;6.28;84.96
72336;BME280;65062;48.446;8.834;2022-11-25T16:25:38;97960.50;;;6.34;85.08
72336;BME280;65062;48.446;8.834;2022-11-25T16:28:40;97962.66;;;6.21;85.77
72336;BME280;65062;48.446;8.834;2022-11-25T16:31:41;97967.63;;;6.14;85.49
72336;BME280;65062;48.446;8.834;2022-11-25T16:34:42;97977.38;;;6.03;85.60
72336;BME280;65062;48.446;8.834;2022-11-25T16:37:42;97983.97;;;5.70;85.84
72336;BME280;65062;48.446;8.834;2022-11-25T16:40:43;97996.06;;;5.43;86.69
72336;BME280;65062;48.446;8.834;2022-11-25T16:43:44;97993.56;;;5.14;87.02
72336;BME280;65062;48.446;8.834;2022-11-25T16:46:45;97997.38;;;4.91;87.10
72336;BME280;65062;48.446;8.834;2022-11-25T16:49:45;97993.06;;;4.63;87.43
72336;BME280;65062;48.446;8.834;2022-11-25T16:52:46;98005.19;;;4.72;87.62
72336;BME280;65062;48.446;8.834;2022-11-25T16:55:46;97996.84;;;4.40;86.96
72336;BME280;65062;48.446;8.834;2022-11-25T16:58:48;98007.19;;;4.21;85.69
72336;BME280;65062;48.446;8.834;2022-11-25T17:01:48;98023.56;;;3.82;86.16
72336;BME280;65062;48.446;8.834;2022-11-25T17:04:49;98033.78;;;3.53;86.91
72336;BME280;65062;48.446;8.834;2022-11-25T17:07:50;98038.84;;;3.34;87.42
72336;BME280;65062;48.446;8.834;2022-11-25T17:10:52;98036.13;;;3.15;87.97
72336;BME280;65062;48.446;8.834;2022-11-25T17:13:55;98038.59;;;2.96;89.07
72336;BME280;65062;48.446;8.834;2022-11-25T17:16:58;98032.16;;;2.91;89.41
72336;BME280;65062;48.446;8.834;2022-11-25T17:19:59;98034.94;;;2.99;89.32
72336;BME280;65062;48.446;8.834;2022-11-25T17:23:00;98039.22;;;2.89;89.79
72336;BME280;65062;48.446;8.834;2022-11-25T17:26:01;98051.28;;;2.99;90.63
72336;BME280;65062;48.446;8.834;2022-11-25T17:29:04;98056.81;;;3.15;91.38
72336;BME280;65062;48.446;8.834;2022-11-25T17:32:11;98058.91;;;3.21;91.96
72336;BME280;65062;48.446;8.834;2022-11-25T17:35:18;98071.13;;;3.40;92.32
72336;BME280;65062;48.446;8.834;2022-11-25T17:38:19;98073.22;;;3.46;92.70
72336;BME280;65062;48.446;8.834;2022-11-25T17:41:21;98080.03;;;3.67;92.61
72336;BME280;65062;48.446;8.834;2022-11-25T17:44:27;98080.03;;;3.67;91.87
72336;BME280;65062;48.446;8.834;2022-11-25T17:47:28;98083.75;;;3.74;91.99
72336;BME280;65062;48.446;8.834;2022-11-25T17:50:28;98081.16;;;3.74;92.06
72336;BME280;65062;48.446;8.834;2022-11-25T17:53:29;98093.13;;;3.75;92.07
72336;BME280;65062;48.446;8.834;2022-11-25T17:56:29;98091.91;;;3.70;93.08
72336;BME280;65062;48.446;8.834;2022-11-25T17:59:32;98100.59;;;3.89;92.55
72336;BME280;65062;48.446;8.834;2022-11-25T18:02:34;98097.78;;;3.72;90.99
72336;BME280;65062;48.446;8.834;2022-11-25T18:05:34;98109.81;;;3.62;91.78
72336;BME280;65062;48.446;8.834;2022-11-25T18:08:35;98116.66;;;3.63;91.66
72336;BME280;65062;48.446;8.834;2022-11-25T18:11:36;98121.50;;;3.56;91.58
72336;BME280;65062;48.446;8.834;2022-11-25T18:14:37;98126.25;;;3.51;92.31